Time;durP1;ratioP1;P1;durP2;ratioP2;P2;SDS_P1;SDS_P2;PMS_P1;PMS_P2;Temp;Humidity;BMP_temperature;BMP_pressure;BME280_temperature;BME280_humidity;BME280_pressure;Samples;Min_cycle;Max_cycle;Signal;HPM_P1;HPM_P2
2021/08/07 00:00:35;;;;;;;3.45;2.80;;;;;;;20.41;59.31;99306.25;4273355;33;33382;-88
2021/08/07 00:03:03;;;;;;;3.20;2.45;;;;;;;20.43;59.14;99304.38;4238994;33;34734;-88
2021/08/07 00:05:30;;;;;;;4.78;2.60;;;;;;;20.39;59.19;99304.59;4274120;33;33706;-88
2021/08/07 00:07:58;;;;;;;4.05;2.22;;;;;;;20.38;59.29;99305.53;4274048;33;32963;-89
2021/08/07 00:10:26;;;;;;;4.70;2.72;;;;;;;20.39;59.14;99310.75;4274217;33;34206;-89
2021/08/07 00:12:54;;;;;;;3.12;2.58;;;;;;;20.31;59.31;99307.59;4250744;33;34308;-88
2021/08/07 00:15:22;;;;;;;3.78;2.55;;;;;;;20.30;59.43;99316.44;4274013;33;33943;-88
2021/08/07 00:17:49;;;;;;;4.10;2.22;;;;;;;20.28;59.42;99314.84;4273933;33;33774;-88
2021/08/07 00:20:18;;;;;;;4.35;3.05;;;;;;;20.20;59.59;99313.38;4262208;33;34706;-89
2021/08/07 00:22:45;;;;;;;3.28;2.58;;;;;;;20.34;59.39;99309.25;4250760;33;34235;-88
2021/08/07 00:25:13;;;;;;;5.37;2.35;;;;;;;20.24;59.65;99322.03;4262142;33;34197;-88
2021/08/07 00:27:41;;;;;;;4.57;2.58;;;;;;;20.21;59.52;99316.84;4238539;33;32822;-88
2021/08/07 00:30:09;;;;;;;6.68;3.35;;;;;;;20.27;59.38;99308.69;4262441;33;34838;-88
2021/08/07 00:32:38;;;;;;;6.07;3.40;;;;;;;20.10;59.80;99311.22;4274069;33;33987;-88
2021/08/07 00:35:06;;;;;;;3.62;2.65;;;;;;;20.12;59.82;99312.00;4250496;33;33690;-88
2021/08/07 00:37:34;;;;;;;4.12;2.72;;;;;;;20.15;59.98;99314.50;4262485;33;33577;-88
2021/08/07 00:40:05;;;;;;;5.07;3.10;;;;;;;19.99;60.11;99310.88;4262269;33;34131;-89
2021/08/07 00:42:33;;;;;;;3.40;2.03;;;;;;;20.00;60.13;99304.66;4261963;33;36458;-88
2021/08/07 00:45:05;;;;;;;3.33;2.12;;;;;;;20.08;60.09;99311.31;4285821;33;34982;-88
2021/08/07 00:47:32;;;;;;;3.72;2.60;;;;;;;20.09;59.89;99309.50;4238842;33;33125;-88
2021/08/07 00:50:03;;;;;;;3.12;2.45;;;;;;;19.99;60.23;99303.78;4262552;33;34028;-89
2021/08/07 00:52:31;;;;;;;5.85;2.20;;;;;;;20.22;59.56;99300.13;4259611;33;89816;-89
2021/08/07 00:54:59;;;;;;;2.80;2.20;;;;;;;20.18;59.57;99309.09;4274726;33;35030;-89
2021/08/07 00:57:27;;;;;;;5.00;2.65;;;;;;;20.14;59.49;99313.63;4262204;33;34387;-88
2021/08/07 00:59:55;;;;;;;6.47;2.60;;;;;;;19.96;60.08;99311.88;4273567;33;33415;-88
2021/08/07 01:02:24;;;;;;;5.65;2.40;;;;;;;19.97;59.91;99317.97;4262100;33;35554;-88
2021/08/07 01:05:05;;;;;;;3.15;2.85;;;;;;;19.99;60.06;99310.88;4273790;33;33548;-88
2021/08/07 01:07:51;;;;;;;4.37;2.83;;;;;;;19.99;60.16;99308.22;4261928;33;34217;-88
2021/08/07 01:10:27;;;;;;;2.85;2.20;;;;;;;19.91;60.32;99316.50;4274884;33;33789;-88
2021/08/07 01:13:17;;;;;;;5.10;2.47;;;;;;;19.84;60.49;99314.19;4250120;33;34437;-89
2021/08/07 01:15:50;;;;;;;3.65;2.45;;;;;;;19.97;60.08;99313.56;4273604;33;34902;-88
2021/08/07 01:18:21;;;;;;;2.50;2.30;;;;;;;19.91;60.25;99310.34;4250828;33;32911;-89
2021/08/07 01:20:52;;;;;;;2.67;2.42;;;;;;;19.77;60.72;99302.22;4262346;33;33665;-88
2021/08/07 01:23:36;;;;;;;3.37;2.08;;;;;;;19.96;60.11;99308.34;4261950;33;35428;-88
2021/08/07 01:26:28;;;;;;;2.97;2.37;;;;;;;19.76;60.74;99316.31;4261858;33;33572;-88
2021/08/07 01:28:58;;;;;;;2.92;2.53;;;;;;;19.93;60.30;99321.69;4262327;33;34187;-89
2021/08/07 01:31:27;;;;;;;4.47;2.33;;;;;;;19.94;60.17;99315.50;4250183;33;33048;-89
2021/08/07 01:33:56;;;;;;;5.30;2.55;;;;;;;19.87;60.06;99317.53;4250136;33;34919;-89
2021/08/07 01:36:25;;;;;;;4.62;2.30;;;;;;;19.93;60.16;99319.91;4261904;33;33484;-89
2021/08/07 01:38:53;;;;;;;2.55;1.90;;;;;;;19.99;59.83;99324.06;4273494;33;33823;-88
2021/08/07 01:41:22;;;;;;;3.75;2.25;;;;;;;19.93;60.02;99319.06;4273544;33;33595;-89
2021/08/07 01:43:51;;;;;;;2.20;1.92;;;;;;;19.69;60.76;99326.28;4250145;33;34106;-88
2021/08/07 01:46:19;;;;;;;2.80;2.50;;;;;;;19.70;60.80;99327.16;4261902;33;34306;-88
2021/08/07 01:49:04;;;;;;;3.55;2.40;;;;;;;19.78;60.50;99323.22;4261825;33;33630;-88
2021/08/07 01:51:48;;;;;;;2.85;2.55;;;;;;;19.78;60.42;99317.13;4273646;33;33626;-89
2021/08/07 01:54:20;;;;;;;3.00;2.53;;;;;;;19.64;60.82;99317.72;4261946;33;34569;-89
2021/08/07 01:56:49;;;;;;;;;;;;;;;19.66;60.86;99320.31;4250566;33;32983;-88
2021/08/07 01:59:20;;;;;;;3.85;2.42;;;;;;;19.61;61.10;99319.66;4273443;33;33393;-88
2021/08/07 02:01:49;;;;;;;4.15;2.35;;;;;;;19.73;60.69;99313.84;4273143;33;34169;-88
2021/08/07 02:04:19;;;;;;;4.22;2.10;;;;;;;19.70;60.58;99317.47;4261825;33;34904;-89
2021/08/07 02:06:49;;;;;;;2.30;2.10;;;;;;;19.79;60.46;99317.03;4261476;33;33986;-89
2021/08/07 02:09:18;;;;;;;2.67;2.10;;;;;;;19.82;60.36;99318.69;4250010;33;32768;-88
2021/08/07 02:11:46;;;;;;;3.72;2.60;;;;;;;19.71;60.66;99313.00;4284895;33;34785;-88
2021/08/07 02:14:15;;;;;;;4.25;2.47;;;;;;;19.72;60.66;99318.25;4284680;33;35555;-88
2021/08/07 02:16:44;;;;;;;4.30;2.15;;;;;;;19.71;60.63;99313.00;4261599;33;34902;-88
2021/08/07 02:19:13;;;;;;;5.50;2.30;;;;;;;19.62;60.67;99314.28;4261448;33;33966;-88
2021/08/07 02:21:42;;;;;;;4.22;2.33;;;;;;;19.49;61.04;99318.41;4273174;33;34013;-89
2021/08/07 02:24:10;;;;;;;3.97;2.37;;;;;;;19.48;61.10;99322.81;4262234;33;34503;-88
2021/08/07 02:26:39;;;;;;;2.65;2.25;;;;;;;19.49;60.97;99318.41;4263047;33;34491;-88
2021/08/07 02:29:07;;;;;;;2.10;1.90;;;;;;;19.54;60.84;99321.69;4274450;33;33992;-89
2021/08/07 02:31:35;;;;;;;2.55;1.90;;;;;;;19.68;60.36;99329.00;4251449;33;33386;-89
2021/08/07 02:34:07;;;;;;;3.78;2.45;;;;;;;19.72;60.21;99330.56;4274661;33;33818;-89
2021/08/07 02:36:35;;;;;;;5.05;2.30;;;;;;;19.62;60.55;99329.25;4274583;33;34938;-89
2021/08/07 02:39:03;;;;;;;4.95;2.50;;;;;;;19.56;60.93;99330.41;4251587;33;34398;-88
2021/08/07 02:41:31;;;;;;;2.72;2.00;;;;;;;19.32;61.31;99334.94;4250983;33;33355;-89
2021/08/07 02:44:00;;;;;;;2.87;2.50;;;;;;;19.35;61.24;99334.78;4274416;33;33897;-89
2021/08/07 02:46:30;;;;;;;4.28;2.45;;;;;;;19.40;61.17;99335.47;4274657;33;34275;-89
2021/08/07 02:48:59;;;;;;;3.15;2.25;;;;;;;19.39;61.21;99338.19;4262926;33;33084;-89
2021/08/07 02:51:27;;;;;;;2.62;2.15;;;;;;;19.44;60.98;99337.09;4274537;33;34309;-88
2021/08/07 02:53:55;;;;;;;2.40;2.17;;;;;;;19.56;60.66;99338.31;4262801;33;35413;-89
2021/08/07 02:56:24;;;;;;;2.65;2.35;;;;;;;19.34;61.33;99338.34;4263153;33;34218;-88
2021/08/07 02:58:53;;;;;;;3.53;2.05;;;;;;;19.41;61.13;99342.47;4251154;33;32870;-89
2021/08/07 03:01:22;;;;;;;4.62;2.20;;;;;;;19.54;60.76;99342.78;4251001;33;34449;-88
2021/08/07 03:03:50;;;;;;;5.43;2.10;;;;;;;19.57;60.58;99346.16;4286250;33;33953;-88
2021/08/07 03:06:18;;;;;;;3.62;1.87;;;;;;;19.41;60.98;99347.75;4251160;33;33516;-88
2021/08/07 03:08:45;;;;;;;4.75;2.85;;;;;;;19.27;61.48;99344.81;4251058;33;32848;-88
2021/08/07 03:11:13;;;;;;;3.08;2.28;;;;;;;19.21;61.81;99350.34;4274453;33;33447;-89
2021/08/07 03:13:41;;;;;;;2.70;2.35;;;;;;;19.26;61.65;99348.38;4262502;33;34959;-88
2021/08/07 03:16:10;;;;;;;3.17;2.30;;;;;;;19.44;60.96;99349.41;4286223;33;34198;-89
2021/08/07 03:18:38;;;;;;;2.90;2.40;;;;;;;19.43;60.99;99348.53;4262776;33;34272;-89
2021/08/07 03:21:07;;;;;;;3.28;2.40;;;;;;;19.34;61.02;99359.44;4250896;33;33214;-89
2021/08/07 03:23:36;;;;;;;3.22;2.20;;;;;;;19.30;61.27;99363.13;4274472;33;35097;-89
2021/08/07 03:26:04;;;;;;;4.53;2.00;;;;;;;19.36;61.31;99362.91;4251115;33;34158;-89
2021/08/07 03:28:32;;;;;;;2.28;2.08;;;;;;;19.45;61.05;99365.16;4286397;33;33905;-89
2021/08/07 03:31:00;;;;;;;2.47;2.28;;;;;;;19.26;61.60;99365.94;4274286;33;32797;-88
2021/08/07 03:33:28;;;;;;;2.78;2.50;;;;;;;19.34;61.37;99366.50;4262886;33;34655;-89
2021/08/07 03:35:56;;;;;;;5.85;2.10;;;;;;;19.26;61.61;99374.72;4274000;33;34242;-89
2021/08/07 03:38:25;;;;;;;4.57;2.47;;;;;;;19.33;61.31;99368.28;4274320;33;33095;-88
2021/08/07 03:40:55;;;;;;;5.22;2.30;;;;;;;19.36;61.26;99364.69;4250901;33;33589;-89
2021/08/07 03:43:23;;;;;;;6.35;2.55;;;;;;;19.40;61.09;99366.25;4262488;33;34957;-89
2021/08/07 03:45:51;;;;;;;2.75;2.28;;;;;;;19.36;61.30;99373.47;4262294;33;33664;-89
2021/08/07 03:48:20;;;;;;;4.03;2.08;;;;;;;19.45;61.11;99372.19;4251085;33;33899;-88
2021/08/07 03:50:48;;;;;;;2.78;2.53;;;;;;;19.40;61.24;99376.81;4262556;33;34187;-89
2021/08/07 03:53:17;;;;;;;3.00;2.20;;;;;;;19.35;61.45;99384.88;4262576;33;35857;-88
2021/08/07 03:55:45;;;;;;;3.62;2.30;;;;;;;19.37;61.43;99385.69;4274231;33;34419;-89
2021/08/07 03:58:13;;;;;;;3.70;2.12;;;;;;;19.22;61.81;99393.38;4274128;33;33878;-89
2021/08/07 04:00:41;;;;;;;4.25;3.12;;;;;;;19.18;61.96;99387.38;4262785;33;34224;-88
2021/08/07 04:03:10;;;;;;;5.15;2.47;;;;;;;19.25;61.99;99395.91;4262947;33;35013;-89
2021/08/07 04:05:38;;;;;;;5.65;2.60;;;;;;;19.28;62.07;99388.69;4262612;33;34926;-89
2021/08/07 04:08:10;;;;;;;3.28;2.50;;;;;;;19.40;61.70;99390.00;4262399;33;34366;-89
2021/08/07 04:10:39;;;;;;;5.20;2.47;;;;;;;19.29;62.11;99390.44;4262983;33;34811;-88
2021/08/07 04:13:06;;;;;;;6.28;2.40;;;;;;;19.41;61.75;99384.69;4250308;33;35037;-89
2021/08/07 04:15:35;;;;;;;6.43;2.62;;;;;;;19.53;61.67;99376.25;4250520;33;34436;-88
2021/08/07 04:18:04;;;;;;;4.10;2.35;;;;;;;19.45;62.22;99378.34;4262236;33;33021;-88
2021/08/07 04:20:33;;;;;;;2.95;2.58;;;;;;;19.50;62.13;99381.63;4274021;33;35056;-88
2021/08/07 04:23:02;;;;;;;5.43;2.70;;;;;;;19.58;61.89;99378.69;4273946;33;34942;-89
2021/08/07 04:25:30;;;;;;;4.78;2.60;;;;;;;19.62;61.84;99369.69;4262091;33;34222;-88
2021/08/07 04:27:58;;;;;;;5.22;2.87;;;;;;;19.55;62.06;99374.38;4250181;33;32959;-89
2021/08/07 04:30:25;;;;;;;3.30;2.50;;;;;;;19.64;62.09;99377.53;4250424;33;33498;-89
2021/08/07 04:32:55;;;;;;;3.83;2.60;;;;;;;19.65;62.17;99371.34;4274330;33;33969;-88
2021/08/07 04:35:23;;;;;;;3.75;2.30;;;;;;;19.71;62.24;99376.34;4262261;33;33652;-90
2021/08/07 04:37:56;;;;;;;4.15;2.90;;;;;;;19.81;62.06;99381.16;4250438;33;32849;-88
2021/08/07 04:40:26;;;;;;;4.82;2.42;;;;;;;19.67;62.44;99375.63;4262253;33;32902;-90
2021/08/07 04:42:55;;;;;;;4.78;2.53;;;;;;;19.77;62.33;99376.09;4285847;33;34307;-88
2021/08/07 04:45:23;;;;;;;5.22;2.35;;;;;;;19.80;62.30;99379.44;4262436;33;34176;-88
2021/08/07 04:47:56;;;;;;;3.42;2.40;;;;;;;19.90;62.03;99378.09;4249918;33;32959;-88
2021/08/07 04:50:27;;;;;;;6.05;2.50;;;;;;;19.94;62.09;99382.34;4250783;33;33731;-88
2021/08/07 04:52:55;;;;;;;5.37;2.53;;;;;;;19.97;62.20;99383.97;4261981;33;35067;-88
2021/08/07 04:55:25;;;;;;;3.87;2.50;;;;;;;20.11;62.06;99376.31;4250678;33;34422;-88
2021/08/07 04:57:53;;;;;;;3.58;2.60;;;;;;;20.08;62.13;99373.78;4262329;33;34306;-88
2021/08/07 05:00:23;;;;;;;4.18;2.30;;;;;;;20.28;61.57;99376.41;4262399;33;34751;-88
2021/08/07 05:02:57;;;;;;;3.92;2.72;;;;;;;20.25;61.75;99374.75;4273952;33;35486;-88
2021/08/07 05:05:30;;;;;;;4.72;2.50;;;;;;;20.43;61.33;99378.34;4262546;33;34907;-88
2021/08/07 05:07:59;;;;;;;2.92;2.22;;;;;;;20.51;61.40;99385.91;4262121;33;33654;-88
2021/08/07 05:10:28;;;;;;;3.78;2.28;;;;;;;20.65;61.22;99392.25;4250446;33;34282;-88
2021/08/07 05:12:56;;;;;;;4.95;2.67;;;;;;;20.83;61.10;99394.03;4273683;33;33960;-88
2021/08/07 05:15:23;;;;;;;4.18;2.20;;;;;;;20.90;61.26;99405.16;4250074;33;33751;-88
2021/08/07 05:17:54;;;;;;;5.62;2.60;;;;;;;21.13;61.08;99401.44;4285405;33;33812;-88
2021/08/07 05:20:22;;;;;;;5.05;2.78;;;;;;;21.18;61.15;99407.34;4262245;33;34689;-88
2021/08/07 05:22:50;;;;;;;5.50;2.70;;;;;;;21.10;61.48;99412.16;4250054;33;35154;-88
2021/08/07 05:25:17;;;;;;;2.62;2.25;;;;;;;21.13;61.39;99402.28;4261858;33;34151;-88
2021/08/07 05:27:46;;;;;;;6.72;2.40;;;;;;;21.25;60.64;99403.47;4250135;33;32896;-88
2021/08/07 05:30:14;;;;;;;5.68;1.77;;;;;;;21.30;60.37;99402.28;4261981;33;33487;-88
2021/08/07 05:32:42;;;;;;;2.50;2.10;;;;;;;21.47;59.71;99406.72;4250070;33;33983;-89
2021/08/07 05:35:10;;;;;;;3.70;2.15;;;;;;;21.47;59.95;99406.72;4250044;33;33440;-89
2021/08/07 05:37:40;;;;;;;3.58;2.80;;;;;;;21.60;60.12;99407.84;4273474;33;34823;-88
2021/08/07 05:40:10;;;;;;;4.25;2.15;;;;;;;21.59;60.42;99401.69;4250316;33;34287;-88
2021/08/07 05:42:38;;;;;;;3.42;2.40;;;;;;;21.71;59.92;99400.19;4238510;33;34248;-89
2021/08/07 05:45:06;;;;;;;3.17;1.85;;;;;;;21.80;59.54;99393.59;4261960;33;34200;-88
2021/08/07 05:47:34;;;;;;;18.75;3.75;;;;;;;22.03;58.95;99404.72;4261735;33;33903;-88
2021/08/07 05:50:03;;;;;;;9.27;3.15;;;;;;;22.13;59.06;99408.56;4284933;33;33720;-88
2021/08/07 05:52:30;;;;;;;7.43;2.22;;;;;;;22.40;58.35;99408.00;4261731;33;34386;-88
2021/08/07 05:54:58;;;;;;;2.92;2.03;;;;;;;22.50;58.02;99409.22;4261648;33;34042;-88
2021/08/07 05:57:26;;;;;;;3.90;2.37;;;;;;;22.65;57.43;99413.75;4261501;33;32930;-88
2021/08/07 05:59:55;;;;;;;3.25;1.98;;;;;;;22.69;57.18;99412.63;4249875;33;33462;-88
2021/08/07 06:02:22;;;;;;;3.67;2.10;;;;;;;22.76;58.03;99408.69;4261600;33;35405;-88
2021/08/07 06:04:51;;;;;;;3.92;1.90;;;;;;;22.78;57.12;99409.44;4262036;33;34295;-88
2021/08/07 06:07:19;;;;;;;4.28;2.10;;;;;;;22.95;56.93;99404.06;4273161;33;33511;-88
2021/08/07 06:09:47;;;;;;;3.37;1.75;;;;;;;23.20;56.87;99404.34;4273514;33;34885;-89
2021/08/07 06:12:15;;;;;;;3.70;2.15;;;;;;;23.39;56.47;99410.34;4284785;33;35553;-89
2021/08/07 06:14:43;;;;;;;2.30;1.70;;;;;;;23.56;56.42;99399.59;4273081;33;34181;-89
2021/08/07 06:17:11;;;;;;;3.05;1.75;;;;;;;23.71;55.38;99411.09;4261370;33;34004;-89
2021/08/07 06:19:40;;;;;;;2.40;1.83;;;;;;;23.67;55.00;99416.69;4273026;33;34353;-89
2021/08/07 06:22:07;;;;;;;2.00;1.55;;;;;;;23.90;54.50;99411.72;4261386;33;34667;-89
2021/08/07 06:24:35;;;;;;;3.85;1.85;;;;;;;23.90;54.18;99401.09;4249450;33;33642;-89
2021/08/07 06:27:05;;;;;;;1.92;1.42;;;;;;;24.32;53.43;99399.44;4272503;33;32859;-89
2021/08/07 06:29:32;;;;;;;3.10;1.70;;;;;;;24.43;52.62;99396.94;4261178;33;34339;-89
2021/08/07 06:32:02;;;;;;;2.55;1.60;;;;;;;24.53;51.96;99401.56;4249480;33;33720;-89
2021/08/07 06:34:30;;;;;;;2.12;1.80;;;;;;;24.50;51.63;99398.28;4260986;33;34172;-89
2021/08/07 06:36:57;;;;;;;4.30;1.70;;;;;;;24.56;51.34;99403.19;4249186;33;32888;-89
2021/08/07 06:39:26;;;;;;;3.45;1.48;;;;;;;24.97;50.30;99401.44;4272969;33;34068;-89
2021/08/07 06:41:54;;;;;;;4.35;2.30;;;;;;;25.08;50.69;99406.06;4261051;33;34623;-89
2021/08/07 06:44:25;;;;;;;2.67;1.70;;;;;;;25.39;49.02;99413.69;4250169;33;34416;-89
2021/08/07 06:46:54;;;;;;;2.85;1.48;;;;;;;25.50;49.97;99419.22;4272921;33;34444;-90
2021/08/07 06:49:21;;;;;;;2.03;1.52;;;;;;;25.63;49.13;99420.09;4261193;33;34016;-89
2021/08/07 06:51:49;;;;;;;2.78;1.48;;;;;;;25.64;47.83;99420.94;4249312;33;34112;-89
2021/08/07 06:54:17;;;;;;;2.25;1.37;;;;;;;25.90;47.05;99415.56;4261031;33;34344;-89
2021/08/07 06:56:48;;;;;;;2.12;1.50;;;;;;;26.09;46.78;99420.47;4249454;33;32616;-89
2021/08/07 06:59:16;;;;;;;2.03;1.10;;;;;;;26.03;47.14;99405.75;4273368;33;33874;-88
2021/08/07 07:01:44;;;;;;;2.67;1.48;;;;;;;26.56;46.13;99411.81;4261051;33;34174;-89
2021/08/07 07:04:13;;;;;;;2.45;1.58;;;;;;;26.59;45.65;99414.25;4260433;33;34415;-89
2021/08/07 07:06:41;;;;;;;2.58;1.60;;;;;;;26.79;45.35;99421.72;4272162;33;33824;-89
2021/08/07 07:09:08;;;;;;;2.70;1.37;;;;;;;26.83;45.51;99418.72;4260604;33;34000;-89
2021/08/07 07:11:37;;;;;;;3.33;1.50;;;;;;;26.79;44.88;99419.06;4250855;33;34337;-89
2021/08/07 07:14:05;;;;;;;2.95;1.40;;;;;;;27.10;43.21;99421.16;4286313;33;34439;-89
2021/08/07 07:16:33;;;;;;;5.37;1.45;;;;;;;27.25;43.73;99421.84;4251092;33;33734;-88
2021/08/07 07:19:01;;;;;;;2.60;1.52;;;;;;;27.13;45.62;99412.94;4262495;33;34134;-89
2021/08/07 07:21:28;;;;;;;1.70;1.30;;;;;;;27.07;45.24;99416.06;4250648;33;33684;-89
2021/08/07 07:23:56;;;;;;;3.60;1.40;;;;;;;27.45;44.40;99413.25;4262612;33;34162;-89
2021/08/07 07:26:27;;;;;;;1.60;1.25;;;;;;;27.68;41.82;99414.16;4262278;33;33631;-89
2021/08/07 07:28:56;;;;;;;3.50;1.30;;;;;;;27.88;40.59;99413.50;4274071;33;34235;-89
2021/08/07 07:31:24;;;;;;;1.10;1.00;;;;;;;28.09;40.57;99419.91;4262584;33;34959;-88
2021/08/07 07:33:52;;;;;;;2.62;1.20;;;;;;;28.23;40.02;99421.47;4274295;33;34773;-88
2021/08/07 07:36:20;;;;;;;2.12;1.10;;;;;;;28.33;39.61;99420.66;4250905;33;32956;-88
2021/08/07 07:38:48;;;;;;;1.60;1.20;;;;;;;28.29;40.49;99424.53;4274349;33;33945;-88
2021/08/07 07:41:17;;;;;;;2.12;1.05;;;;;;;28.38;40.21;99412.25;4262663;33;35514;-88
2021/08/07 07:43:44;;;;;;;2.03;1.30;;;;;;;28.37;42.00;99422.09;4274445;33;33531;-89
2021/08/07 07:46:13;;;;;;;2.75;1.33;;;;;;;28.58;38.95;99415.03;4274122;33;33705;-89
2021/08/07 07:48:41;;;;;;;1.67;1.30;;;;;;;28.83;38.75;99422.84;4274178;33;32878;-88
2021/08/07 07:51:09;;;;;;;5.78;1.30;;;;;;;28.71;39.04;99418.50;4262415;33;35537;-89
2021/08/07 07:53:37;;;;;;;1.75;1.30;;;;;;;28.79;37.04;99412.50;4262610;33;33954;-88
2021/08/07 07:56:06;;;;;;;3.30;1.50;;;;;;;28.87;39.31;99419.91;4250689;33;33778;-89
2021/08/07 07:58:35;;;;;;;1.60;1.27;;;;;;;28.67;38.30;99414.34;4285763;33;34386;-89
2021/08/07 08:01:03;;;;;;;2.90;1.40;;;;;;;28.91;37.54;99413.34;4274503;33;33928;-89
2021/08/07 08:03:31;;;;;;;3.05;1.40;;;;;;;28.94;37.38;99410.41;4262728;33;34158;-89
2021/08/07 08:05:59;;;;;;;3.35;1.15;;;;;;;29.02;37.02;99407.97;4274094;33;33542;-88
2021/08/07 08:08:27;;;;;;;1.52;1.08;;;;;;;28.98;36.55;99398.50;4273924;33;35250;-89
2021/08/07 08:10:55;;;;;;;3.03;1.40;;;;;;;29.07;36.81;99405.75;4274011;33;33938;-89
2021/08/07 08:13:23;;;;;;;2.78;1.42;;;;;;;29.38;36.41;99404.97;4262300;33;33923;-89
2021/08/07 08:15:50;;;;;;;1.30;1.12;;;;;;;29.25;37.84;99409.62;4274511;33;33695;-89
2021/08/07 08:18:19;;;;;;;4.35;1.45;;;;;;;29.34;36.29;99403.50;4250909;33;33215;-90
2021/08/07 08:20:46;;;;;;;2.85;1.65;;;;;;;29.12;37.34;99408.91;4273948;33;34011;-89
2021/08/07 08:23:14;;;;;;;1.90;1.42;;;;;;;29.27;36.29;99403.16;4250303;33;33344;-90
2021/08/07 08:25:42;;;;;;;2.78;1.52;;;;;;;29.39;36.56;99406.63;4262439;33;33959;-90
2021/08/07 08:28:10;;;;;;;5.85;1.80;;;;;;;29.47;36.09;99402.34;4250953;33;33537;-89
2021/08/07 08:30:39;;;;;;;2.50;1.48;;;;;;;29.52;36.43;99406.47;4262180;33;33938;-89
2021/08/07 08:33:07;;;;;;;3.97;1.58;;;;;;;29.29;36.40;99406.56;4250798;33;33567;-89
2021/08/07 08:35:35;;;;;;;2.72;1.52;;;;;;;29.26;38.14;99409.47;4250697;33;33822;-89
2021/08/07 08:38:04;;;;;;;3.85;1.65;;;;;;;29.52;37.41;99406.47;4250886;33;33484;-90
2021/08/07 08:40:32;;;;;;;2.40;1.60;;;;;;;29.45;36.69;99406.16;4262500;33;35382;-89
2021/08/07 08:43:00;;;;;;;2.47;1.60;;;;;;;29.26;39.01;99416.69;4286050;33;34322;-89
2021/08/07 08:45:28;;;;;;;3.42;1.60;;;;;;;29.17;39.58;99415.56;4262471;33;33613;-90
2021/08/07 08:47:56;;;;;;;2.92;1.35;;;;;;;29.37;38.72;99412.13;4262363;33;33704;-88
2021/08/07 08:50:23;;;;;;;2.45;1.62;;;;;;;29.59;37.79;99403.16;4274349;33;33435;-89
2021/08/07 08:52:51;;;;;;;4.22;1.48;;;;;;;29.54;38.61;99410.72;4250808;33;33645;-89
2021/08/07 08:55:19;;;;;;;2.20;1.42;;;;;;;29.46;37.22;99402.47;4250708;33;34317;-89
2021/08/07 08:57:47;;;;;;;1.67;1.40;;;;;;;29.74;36.60;99407.19;4274041;33;33221;-89
2021/08/07 09:00:16;;;;;;;1.52;1.20;;;;;;;29.62;35.10;99402.88;4262510;33;34525;-89
2021/08/07 09:02:44;;;;;;;1.10;1.00;;;;;;;29.67;34.12;99406.00;4273814;33;34476;-89
2021/08/07 09:05:13;;;;;;;1.73;1.23;;;;;;;29.89;32.71;99408.63;4250795;33;33848;-89
2021/08/07 09:07:44;;;;;;;2.20;1.15;;;;;;;29.91;32.29;99403.09;4262640;33;34225;-90
2021/08/07 09:10:14;;;;;;;2.10;1.20;;;;;;;29.74;34.23;99407.19;4262434;33;33905;-89
2021/08/07 09:12:49;;;;;;;3.87;1.30;;;;;;;29.89;33.15;99405.94;4262251;33;34986;-89
2021/08/07 09:15:31;;;;;;;1.80;1.40;;;;;;;29.92;33.96;99411.03;4262225;33;33104;-89
2021/08/07 09:18:17;;;;;;;2.80;1.50;;;;;;;29.87;34.73;99405.22;4238828;33;33292;-89
2021/08/07 09:20:49;;;;;;;3.00;1.30;;;;;;;30.11;34.33;99413.84;4262214;33;35422;-89
2021/08/07 09:23:32;;;;;;;4.90;1.73;;;;;;;30.17;33.49;99408.94;4250410;33;33625;-89
2021/08/07 09:26:13;;;;;;;4.28;1.40;;;;;;;30.09;34.25;99402.41;4273585;33;32800;-88
2021/08/07 09:28:59;;;;;;;3.00;1.30;;;;;;;30.10;34.04;99404.09;4250396;33;33262;-89
2021/08/07 09:31:28;;;;;;;1.60;1.00;;;;;;;30.20;35.96;99408.63;4261998;33;34968;-88
2021/08/07 09:34:15;;;;;;;2.47;1.00;;;;;;;30.29;35.05;99405.16;4261626;33;33621;-89
2021/08/07 09:36:48;;;;;;;1.67;1.25;;;;;;;30.40;34.67;99405.97;4262217;33;33296;-89
2021/08/07 09:39:16;;;;;;;3.78;1.42;;;;;;;30.26;35.31;99411.66;4262124;33;33910;-89
2021/08/07 09:41:58;;;;;;;2.95;1.30;;;;;;;29.99;36.20;99401.47;4274140;33;34192;-89
2021/08/07 09:44:27;;;;;;;1.25;1.10;;;;;;;30.47;34.48;99403.59;4250503;33;33614;-89
2021/08/07 09:47:06;;;;;;;1.10;1.00;;;;;;;30.42;34.82;99404.00;4261916;33;33366;-89
2021/08/07 09:49:40;;;;;;;1.85;1.35;;;;;;;30.50;34.33;99400.66;4262194;33;33973;-89
2021/08/07 09:52:09;;;;;;;3.25;1.30;;;;;;;30.68;36.15;99407.06;4249953;33;33793;-89
2021/08/07 09:54:41;;;;;;;1.10;1.00;;;;;;;30.50;35.32;99398.78;4262265;33;34898;-89
2021/08/07 09:57:22;;;;;;;2.17;1.10;;;;;;;30.75;34.57;99389.41;4250067;33;32956;-88
2021/08/07 09:59:50;;;;;;;1.20;1.10;;;;;;;30.73;34.02;99394.06;4261919;33;34684;-89
2021/08/07 10:02:32;;;;;;;3.97;1.25;;;;;;;30.86;34.95;99394.66;4273476;33;34202;-89
2021/08/07 10:05:08;;;;;;;1.45;1.02;;;;;;;30.83;34.92;99382.34;4250646;33;33446;-89
2021/08/07 10:07:36;;;;;;;2.28;1.20;;;;;;;30.31;36.19;99385.25;4249775;33;33575;-90
2021/08/07 10:10:22;;;;;;;2.03;1.17;;;;;;;30.57;34.95;99383.84;4284977;33;34388;-89
2021/08/07 10:12:50;;;;;;;2.35;1.10;;;;;;;30.47;34.50;99384.81;4250382;33;34915;-88
2021/08/07 10:15:18;;;;;;;2.90;1.35;;;;;;;31.03;31.79;99377.91;4285080;33;33442;-90
2021/08/07 10:17:46;;;;;;;2.70;1.55;;;;;;;31.15;31.61;99381.31;4273024;33;33830;-89
2021/08/07 10:20:15;;;;;;;2.28;1.58;;;;;;;31.10;32.51;99388.94;4249650;33;34262;-89
2021/08/07 10:22:44;;;;;;;1.75;1.20;;;;;;;31.34;33.13;99386.69;4273213;33;34002;-89
2021/08/07 10:25:12;;;;;;;3.25;1.48;;;;;;;31.56;32.29;99374.84;4273510;33;33818;-90
2021/08/07 10:27:40;;;;;;;2.22;1.10;;;;;;;31.29;33.20;99389.81;4262150;33;33539;-90
2021/08/07 10:30:11;;;;;;;1.48;0.90;;;;;;;31.32;29.22;99384.16;4262440;33;34809;-89
2021/08/07 10:32:42;;;;;;;0.90;0.85;;;;;;;31.31;29.96;99362.78;4273115;33;34607;-89
2021/08/07 10:35:12;;;;;;;3.62;1.10;;;;;;;31.55;28.55;99365.06;4250067;33;33177;-89
2021/08/07 10:37:40;;;;;;;1.30;0.98;;;;;;;31.54;29.95;99360.72;4285179;33;33137;-90
2021/08/07 10:40:10;;;;;;;1.77;0.80;;;;;;;31.25;32.56;99374.97;4250221;33;33149;-90
2021/08/07 10:42:38;;;;;;;0.85;0.82;;;;;;;31.48;29.75;99364.81;4261872;33;34827;-90
2021/08/07 10:45:07;;;;;;;3.70;0.93;;;;;;;31.55;30.51;99362.38;4250721;33;33470;-90
2021/08/07 10:47:48;;;;;;;1.50;0.95;;;;;;;31.76;29.27;99363.09;4264094;33;33583;-90
2021/08/07 10:50:26;;;;;;;1.10;0.80;;;;;;;31.80;29.59;99361.81;4252492;33;33341;-91
2021/08/07 10:52:58;;;;;;;2.15;0.90;;;;;;;31.70;29.35;99355.59;4263938;33;34583;-91
2021/08/07 10:55:55;;;;;;;2.28;0.90;;;;;;;31.77;29.33;99346.81;4287177;33;33646;-90
2021/08/07 10:58:43;;;;;;;5.03;1.00;;;;;;;31.93;28.58;99340.81;4263824;33;33039;-89
2021/08/07 11:01:26;;;;;;;1.00;0.90;;;;;;;31.44;30.64;99345.44;4275258;33;33427;-90
2021/08/07 11:04:00;;;;;;;3.60;0.80;;;;;;;31.48;31.52;99350.50;4251702;33;34241;-89
2021/08/07 11:06:37;;;;;;;1.52;0.95;;;;;;;31.87;29.61;99344.94;4251338;33;33604;-90
2021/08/07 11:09:35;;;;;;;1.55;1.08;;;;;;;31.60;31.09;99344.84;4263468;33;33071;-90
2021/08/07 11:12:06;;;;;;;1.10;1.00;;;;;;;32.11;28.54;99333.72;4261176;33;34390;-90
2021/08/07 11:14:34;;;;;;;1.08;0.80;;;;;;;31.99;30.91;99332.19;4251481;33;34946;-90
2021/08/07 11:17:05;;;;;;;3.85;0.93;;;;;;;31.64;31.99;99340.03;4251364;33;34668;-90
2021/08/07 11:20:05;;;;;;;1.48;0.82;;;;;;;31.68;30.64;99325.31;4276038;33;33600;-90
2021/08/07 11:22:32;;;;;;;1.00;0.90;;;;;;;31.82;31.15;99316.78;4240723;33;34343;-90
2021/08/07 11:25:05;;;;;;;0.90;0.90;;;;;;;32.01;30.06;99311.38;4275864;33;35454;-89
2021/08/07 11:27:48;;;;;;;1.55;0.85;;;;;;;32.13;30.62;99315.59;4251459;33;33408;-90
2021/08/07 11:30:25;;;;;;;1.05;0.75;;;;;;;32.27;30.28;99301.63;4251380;33;33707;-90
2021/08/07 11:32:56;;;;;;;3.87;0.90;;;;;;;32.47;29.42;99308.63;4263674;33;33675;-90
2021/08/07 11:35:34;;;;;;;2.37;0.90;;;;;;;32.33;28.77;99310.97;4251593;33;33897;-89
2021/08/07 11:38:05;;;;;;;1.60;0.90;;;;;;;32.50;29.26;99315.56;4251165;33;33622;-90
2021/08/07 11:40:38;;;;;;;0.90;0.70;;;;;;;32.48;28.93;99320.22;4250844;33;33841;-90
2021/08/07 11:43:11;;;;;;;1.10;0.77;;;;;;;32.51;29.00;99311.88;4251363;33;33272;-89
2021/08/07 11:45:40;;;;;;;1.20;0.90;;;;;;;32.76;27.58;99308.44;4263067;33;34748;-89
2021/08/07 11:48:09;;;;;;;1.10;0.88;;;;;;;32.36;28.59;99322.25;4274150;33;33449;-89